createdAt,value
2019-01-25T00:01:53.430Z,-1.30
2019-01-25T00:04:23.821Z,-1.50
2019-01-25T00:06:54.190Z,-1.40
2019-01-25T00:09:24.638Z,-1.30
2019-01-25T00:11:55.017Z,-1.30
2019-01-25T00:14:25.413Z,-1.30
2019-01-25T00:16:55.844Z,-1.30
2019-01-25T00:19:26.244Z,-1.50
2019-01-25T00:21:56.626Z,-1.50
2019-01-25T00:24:27.062Z,-1.50
2019-01-25T00:26:57.450Z,-1.50
2019-01-25T00:29:27.845Z,-1.50
2019-01-25T00:31:58.220Z,-1.70
2019-01-25T00:34:28.658Z,-1.70
2019-01-25T00:36:59.095Z,-1.60
2019-01-25T00:39:29.460Z,-1.50
2019-01-25T00:41:59.825Z,-1.60
2019-01-25T00:44:30.293Z,-1.60
2019-01-25T00:47:00.711Z,-1.60
2019-01-25T00:49:31.314Z,-1.60
2019-01-25T00:52:01.686Z,-1.60
2019-01-25T00:54:32.126Z,-1.70
2019-01-25T00:57:02.518Z,-1.70
2019-01-25T00:59:32.953Z,-1.70
2019-01-25T01:02:03.337Z,-1.70
2019-01-25T01:04:33.710Z,-1.60
2019-01-25T01:07:04.384Z,-1.60
2019-01-25T01:09:34.747Z,-1.50
2019-01-25T01:12:05.230Z,-1.50
2019-01-25T01:14:35.601Z,-1.50
2019-01-25T01:17:05.981Z,-1.60
2019-01-25T01:19:36.353Z,-1.70
2019-01-25T01:22:06.739Z,-1.70
2019-01-25T01:24:37.135Z,-1.60
2019-01-25T01:27:07.521Z,-1.60
2019-01-25T01:29:37.890Z,-1.50
2019-01-25T01:32:08.286Z,-1.50
2019-01-25T01:34:38.665Z,-1.60
2019-01-25T01:37:09.025Z,-1.50
2019-01-25T01:39:39.605Z,-1.60
2019-01-25T01:42:09.997Z,-1.60
2019-01-25T01:44:40.389Z,-1.60
2019-01-25T01:47:10.755Z,-1.60
2019-01-25T01:49:41.152Z,-1.60
2019-01-25T01:52:11.527Z,-1.60
2019-01-25T01:54:41.925Z,-1.60
2019-01-25T01:57:12.394Z,-1.50
2019-01-25T01:59:42.912Z,-1.60
2019-01-25T02:02:13.309Z,-1.60
2019-01-25T02:04:43.869Z,-1.80
2019-01-25T02:07:14.253Z,-1.70
2019-01-25T02:09:44.646Z,-1.70
2019-01-25T02:12:14.998Z,-1.60
2019-01-25T02:14:45.478Z,-1.70
2019-01-25T02:17:15.841Z,-1.80
2019-01-25T02:19:46.199Z,-1.80
2019-01-25T02:22:16.561Z,-1.70
2019-01-25T02:24:46.951Z,-1.70
2019-01-25T02:27:17.321Z,-1.70
2019-01-25T02:29:47.751Z,-1.60
2019-01-25T02:32:18.125Z,-1.70
2019-01-25T02:34:48.553Z,-1.60
2019-01-25T02:37:18.932Z,-1.70
2019-01-25T02:39:49.285Z,-1.70
2019-01-25T02:42:19.660Z,-1.60
2019-01-25T02:44:50.199Z,-1.70
2019-01-25T02:47:20.554Z,-1.70
2019-01-25T02:49:50.929Z,-1.80
2019-01-25T02:52:21.284Z,-1.70
2019-01-25T02:54:51.651Z,-2.00
2019-01-25T02:57:22.034Z,-2.00
2019-01-25T02:59:52.406Z,-2.10
2019-01-25T03:02:22.762Z,-2.10
2019-01-25T03:04:53.142Z,-2.00
2019-01-25T03:07:23.536Z,-2.10
2019-01-25T03:09:53.902Z,-2.10
2019-01-25T03:12:24.269Z,-2.10
2019-01-25T03:14:54.650Z,-2.20
2019-01-25T03:17:25.036Z,-2.20
2019-01-25T03:19:55.389Z,-2.30
2019-01-25T03:22:25.770Z,-2.20
2019-01-25T03:24:56.124Z,-2.30
2019-01-25T03:27:26.501Z,-2.30
2019-01-25T03:29:56.862Z,-2.30
2019-01-25T03:32:27.250Z,-2.30
2019-01-25T03:34:57.665Z,-2.20
2019-01-25T03:37:28.045Z,-2.30
2019-01-25T03:39:58.414Z,-2.30
2019-01-25T03:42:28.793Z,-2.20
2019-01-25T03:44:59.194Z,-2.30
2019-01-25T03:47:29.565Z,-2.20
2019-01-25T03:49:59.930Z,-2.30
2019-01-25T03:52:30.313Z,-2.50
2019-01-25T03:55:00.673Z,-2.60
2019-01-25T03:57:31.046Z,-2.70
2019-01-25T04:00:01.419Z,-2.70
2019-01-25T04:02:31.786Z,-2.80
2019-01-25T04:05:02.151Z,-2.90
2019-01-25T04:07:32.525Z,-2.80
2019-01-25T04:10:02.921Z,-2.90
2019-01-25T04:12:33.302Z,-3.00
2019-01-25T04:15:04.094Z,-3.00
2019-01-25T04:17:34.461Z,-3.10
2019-01-25T04:20:06.663Z,-3.20
2019-01-25T04:22:37.054Z,-3.30
2019-01-25T04:25:09.435Z,-3.40
2019-01-25T04:27:39.793Z,-3.50
2019-01-25T04:30:14.010Z,-3.50
2019-01-25T04:32:48.421Z,-3.30
2019-01-25T04:35:18.811Z,-3.30
2019-01-25T04:37:49.264Z,-3.20
2019-01-25T04:40:19.956Z,-3.10
2019-01-25T04:42:50.717Z,-3.10
2019-01-25T04:45:21.924Z,-3.00
2019-01-25T04:47:52.564Z,-2.90
2019-01-25T04:50:24.914Z,-3.00
2019-01-25T04:52:55.879Z,-2.90
2019-01-25T04:55:28.146Z,-2.90
2019-01-25T04:58:07.622Z,-2.80
2019-01-25T05:00:38.138Z,-2.90
2019-01-25T05:03:08.509Z,-2.90
2019-01-25T05:05:38.909Z,-2.80
2019-01-25T05:08:20.137Z,-2.80
2019-01-25T05:10:50.625Z,-2.90
2019-01-25T05:13:20.978Z,-2.90
2019-01-25T05:15:51.391Z,-2.90
2019-01-25T05:18:21.825Z,-2.80
2019-01-25T05:20:52.185Z,-2.90
2019-01-25T05:23:22.633Z,-2.80
2019-01-25T05:25:53.089Z,-2.80
2019-01-25T05:28:24.535Z,-2.80
2019-01-25T05:31:00.028Z,-2.90
2019-01-25T05:33:30.406Z,-2.80
2019-01-25T05:36:00.770Z,-2.80
2019-01-25T05:38:31.149Z,-2.90
2019-01-25T05:41:01.629Z,-3.10
2019-01-25T05:43:42.655Z,-3.00
2019-01-25T05:46:13.125Z,-3.00
2019-01-25T05:48:43.541Z,-3.20
2019-01-25T05:51:13.889Z,-3.40
2019-01-25T05:53:51.724Z,-3.40
2019-01-25T05:56:22.953Z,-3.40
2019-01-25T05:58:53.328Z,-3.20
2019-01-25T06:01:23.745Z,-3.20
2019-01-25T06:03:54.109Z,-3.40
2019-01-25T06:06:24.483Z,-3.60
2019-01-25T06:08:54.865Z,-3.50
2019-01-25T06:11:25.235Z,-3.40
2019-01-25T06:13:55.614Z,-3.40
2019-01-25T06:16:25.987Z,-3.40
2019-01-25T06:18:56.346Z,-3.40
2019-01-25T06:21:29.681Z,-3.30
2019-01-25T06:24:00.048Z,-3.30
2019-01-25T06:26:30.423Z,-3.40
2019-01-25T06:29:00.800Z,-3.30
2019-01-25T06:31:31.203Z,-3.40
2019-01-25T06:34:01.589Z,-3.30
2019-01-25T06:36:31.953Z,-3.20
2019-01-25T06:39:02.618Z,-3.10
2019-01-25T06:41:32.992Z,-3.00
2019-01-25T06:44:03.407Z,-3.00
2019-01-25T06:46:33.775Z,-3.10
2019-01-25T06:49:04.234Z,-3.20
2019-01-25T06:51:34.694Z,-3.20
2019-01-25T06:54:05.165Z,-3.20
2019-01-25T06:56:35.633Z,-3.30
2019-01-25T06:59:14.081Z,-3.20
2019-01-25T07:02:04.381Z,-3.20
2019-01-25T07:04:34.741Z,-3.10
2019-01-25T07:07:07.601Z,-3.20
2019-01-25T07:09:38.012Z,-3.30
2019-01-25T07:12:08.372Z,-3.40
2019-01-25T07:14:38.761Z,-3.40
2019-01-25T07:17:09.117Z,-3.40
2019-01-25T07:19:39.494Z,-3.20
2019-01-25T07:22:09.883Z,-3.10
2019-01-25T07:24:40.240Z,-2.90
2019-01-25T07:27:10.622Z,-2.70
2019-01-25T07:29:41.001Z,-2.70
2019-01-25T07:32:11.411Z,-2.70
2019-01-25T07:34:41.865Z,-2.50
2019-01-25T07:37:12.303Z,-2.70
2019-01-25T07:39:42.760Z,-2.60
2019-01-25T07:42:13.149Z,-2.50
2019-01-25T07:44:43.501Z,-2.30
2019-01-25T07:47:13.900Z,-2.20
2019-01-25T07:49:44.342Z,-2.40
2019-01-25T07:52:14.794Z,-2.50
2019-01-25T07:54:45.169Z,-2.60
2019-01-25T07:57:15.541Z,-2.60
2019-01-25T07:59:45.989Z,-2.60
2019-01-25T08:02:16.371Z,-2.60
2019-01-25T08:04:46.804Z,-2.70
2019-01-25T08:07:17.280Z,-2.60
2019-01-25T08:09:47.710Z,-2.70
2019-01-25T08:12:18.163Z,-2.70
2019-01-25T08:14:48.539Z,-2.80
2019-01-25T08:17:19.130Z,-3.00
2019-01-25T08:19:49.530Z,-2.90
2019-01-25T08:22:19.893Z,-2.80
2019-01-25T08:24:50.280Z,-2.80
2019-01-25T08:27:20.690Z,-2.70
2019-01-25T08:29:51.250Z,-2.80
2019-01-25T08:32:21.672Z,-2.70
2019-01-25T08:34:52.088Z,-2.50
2019-01-25T08:37:22.494Z,-2.70
2019-01-25T08:39:52.873Z,-2.80
2019-01-25T08:42:23.223Z,-2.90
2019-01-25T08:44:53.586Z,-2.90
2019-01-25T08:47:24.041Z,-2.80
2019-01-25T08:49:57.886Z,-2.70
2019-01-25T08:52:26.553Z,-2.60
2019-01-25T08:54:56.985Z,-2.60
2019-01-25T08:57:27.394Z,-2.60
2019-01-25T08:59:57.796Z,-2.70
2019-01-25T09:02:28.145Z,-2.70
2019-01-25T09:04:58.523Z,-2.50
2019-01-25T09:07:28.871Z,-2.20
2019-01-25T09:09:59.246Z,-2.20
2019-01-25T09:12:29.602Z,-2.00
2019-01-25T09:15:00.010Z,-2.00
2019-01-25T09:17:30.412Z,-2.10
2019-01-25T09:20:00.878Z,-2.20
2019-01-25T09:22:31.318Z,-2.20
2019-01-25T09:25:01.767Z,-2.10
2019-01-25T09:27:32.243Z,-2.00
2019-01-25T09:30:02.790Z,-1.80
2019-01-25T09:32:33.266Z,-1.60
2019-01-25T09:35:06.891Z,-1.30
2019-01-25T09:37:37.489Z,-1.20
2019-01-25T09:40:10.276Z,-1.00
2019-01-25T09:42:40.762Z,-1.20
2019-01-25T09:45:11.851Z,-1.00
2019-01-25T09:47:42.266Z,-0.70
2019-01-25T09:50:14.945Z,-0.70
2019-01-25T09:52:45.350Z,-0.70
2019-01-25T09:55:20.581Z,-0.90
2019-01-25T09:57:52.249Z,-0.60
2019-01-25T10:00:31.597Z,-0.20
2019-01-25T10:03:01.975Z,-0.10
2019-01-25T10:05:32.391Z,-0.40
2019-01-25T10:08:02.831Z,-0.50
2019-01-25T10:10:33.568Z,-0.20
2019-01-25T10:13:03.959Z,-0.30
2019-01-25T10:15:34.338Z,-0.60
2019-01-25T10:18:04.816Z,-0.50
2019-01-25T10:20:35.189Z,-0.30
2019-01-25T10:23:05.589Z,-0.40
2019-01-25T10:25:36.033Z,-0.40
2019-01-25T10:28:06.417Z,-0.80
2019-01-25T10:30:36.830Z,-0.70
2019-01-25T10:33:07.642Z,-0.30
2019-01-25T10:35:38.199Z,-0.20
2019-01-25T10:38:08.627Z,0.10
2019-01-25T10:40:38.970Z,0.00
2019-01-25T10:43:09.360Z,0.00
2019-01-25T10:45:40.398Z,-0.10
2019-01-25T10:48:10.810Z,-0.30
2019-01-25T10:50:41.187Z,-0.20
2019-01-25T10:53:11.666Z,-0.30
2019-01-25T10:55:42.050Z,-0.10
2019-01-25T10:58:12.580Z,0.20
2019-01-25T11:00:43.006Z,0.70
2019-01-25T11:03:13.377Z,1.00
2019-01-25T11:05:43.739Z,0.80
2019-01-25T11:08:14.075Z,0.30
2019-01-25T11:10:44.498Z,0.00
2019-01-25T11:13:14.949Z,-0.10
2019-01-25T11:15:45.421Z,0.00
2019-01-25T11:18:15.851Z,-0.10
2019-01-25T11:20:46.364Z,-0.20
2019-01-25T11:23:16.805Z,-0.20
2019-01-25T11:25:47.275Z,-0.10
2019-01-25T11:28:17.649Z,0.00
2019-01-25T11:30:48.087Z,0.00
2019-01-25T11:33:18.493Z,0.20
2019-01-25T11:35:48.873Z,1.10
2019-01-25T11:38:19.254Z,1.60
2019-01-25T11:40:49.707Z,1.70
2019-01-25T11:43:20.061Z,1.50
2019-01-25T11:45:54.341Z,1.30
2019-01-25T11:48:22.560Z,1.20
2019-01-25T11:50:52.941Z,0.50
2019-01-25T11:53:23.366Z,0.50
2019-01-25T11:55:53.772Z,0.60
2019-01-25T11:58:24.134Z,0.60
2019-01-25T12:00:54.601Z,0.90
2019-01-25T12:03:24.974Z,1.60
2019-01-25T12:05:56.855Z,1.60
2019-01-25T12:08:27.450Z,1.50
2019-01-25T12:10:57.875Z,1.60
2019-01-25T12:13:28.290Z,1.30
2019-01-25T12:15:58.705Z,1.10
2019-01-25T12:18:29.166Z,0.90
2019-01-25T12:20:59.810Z,0.90
2019-01-25T12:23:30.217Z,0.90
2019-01-25T12:26:00.689Z,1.20
2019-01-25T12:28:31.126Z,1.30
2019-01-25T12:31:01.535Z,1.30
2019-01-25T12:33:31.926Z,1.30
2019-01-25T12:36:02.404Z,1.30
2019-01-25T12:38:32.774Z,1.50
2019-01-25T12:41:03.209Z,1.40
2019-01-25T12:43:33.603Z,1.30
2019-01-25T12:46:04.093Z,1.10
2019-01-25T12:48:34.519Z,0.90
2019-01-25T12:51:31.101Z,0.70
2019-01-25T12:54:01.621Z,0.70
2019-01-25T12:56:32.033Z,0.60
2019-01-25T12:59:02.489Z,0.30
2019-01-25T13:01:34.986Z,0.30
2019-01-25T13:04:05.023Z,0.10
2019-01-25T13:06:35.470Z,0.30
2019-01-25T13:09:09.892Z,0.40
2019-01-25T13:11:40.348Z,0.60
2019-01-25T13:14:10.846Z,0.80
2019-01-25T13:16:41.222Z,0.80
2019-01-25T13:19:11.595Z,0.80
2019-01-25T13:21:41.973Z,0.80
2019-01-25T13:24:12.429Z,0.80
2019-01-25T13:26:42.807Z,0.80
2019-01-25T13:29:13.254Z,0.80
2019-01-25T13:31:43.726Z,0.90
2019-01-25T13:34:14.169Z,1.00
2019-01-25T13:36:44.707Z,1.10
2019-01-25T13:39:15.099Z,1.30
2019-01-25T13:41:45.510Z,1.40
2019-01-25T13:44:15.881Z,1.40
2019-01-25T13:46:46.331Z,1.30
2019-01-25T13:49:16.775Z,1.30
2019-01-25T13:51:47.112Z,1.40
2019-01-25T13:54:17.478Z,1.50
2019-01-25T13:56:47.937Z,1.50
2019-01-25T13:59:18.390Z,1.60
2019-01-25T14:01:48.740Z,1.50
2019-01-25T14:04:19.142Z,1.50
2019-01-25T14:06:49.561Z,1.60
2019-01-25T14:09:19.969Z,1.70
2019-01-25T14:11:50.342Z,1.60
2019-01-25T14:14:20.811Z,1.60
2019-01-25T14:16:51.244Z,1.60
2019-01-25T14:19:21.734Z,1.60
2019-01-25T14:21:52.100Z,1.50
2019-01-25T14:24:22.598Z,1.40
2019-01-25T14:26:52.985Z,1.40
2019-01-25T14:29:23.353Z,1.40
2019-01-25T14:31:53.733Z,1.30
2019-01-25T14:34:24.082Z,1.40
2019-01-25T14:36:54.497Z,1.40
2019-01-25T14:39:24.869Z,1.60
2019-01-25T14:41:55.276Z,1.40
2019-01-25T14:44:25.642Z,1.50
2019-01-25T14:46:56.060Z,1.60
2019-01-25T14:49:26.581Z,1.60
2019-01-25T14:51:57.049Z,1.60
2019-01-25T14:54:27.426Z,1.40
2019-01-25T14:56:59.382Z,1.40
2019-01-25T14:59:29.766Z,1.40
2019-01-25T15:02:00.166Z,1.50
2019-01-25T15:04:30.605Z,1.50
2019-01-25T15:07:00.983Z,1.50
2019-01-25T15:09:31.399Z,1.60
2019-01-25T15:12:01.959Z,1.60
2019-01-25T15:14:32.417Z,1.50
2019-01-25T15:17:02.809Z,1.10
2019-01-25T15:19:33.247Z,0.80
2019-01-25T15:22:03.701Z,0.50
2019-01-25T15:24:34.071Z,0.40
2019-01-25T15:27:04.587Z,0.60
2019-01-25T15:29:35.001Z,0.50
2019-01-25T15:32:05.858Z,0.40
2019-01-25T15:34:36.276Z,0.20
2019-01-25T15:37:06.833Z,0.00
2019-01-25T15:39:37.292Z,-0.10
2019-01-25T15:42:07.760Z,-0.10
2019-01-25T15:44:38.263Z,0.00
2019-01-25T15:47:08.683Z,-0.10
2019-01-25T15:49:39.189Z,-0.10
2019-01-25T15:52:09.694Z,-0.30
2019-01-25T15:54:40.174Z,-0.30
2019-01-25T15:57:10.601Z,-0.20
2019-01-25T15:59:41.021Z,-0.20
2019-01-25T16:02:11.506Z,-0.30
2019-01-25T16:04:41.941Z,-0.50
2019-01-25T16:07:13.450Z,-0.40
2019-01-25T16:09:45.586Z,-0.40
2019-01-25T16:12:16.042Z,-0.60
2019-01-25T16:14:46.515Z,-0.70
2019-01-25T16:17:17.037Z,-0.60
2019-01-25T16:19:47.422Z,-0.70
2019-01-25T16:22:17.871Z,-0.60
2019-01-25T16:24:48.350Z,-0.60
2019-01-25T16:27:18.792Z,-0.70
2019-01-25T16:29:49.202Z,-0.70
2019-01-25T16:32:19.599Z,-0.60
2019-01-25T16:34:50.042Z,-0.50
2019-01-25T16:37:20.423Z,-0.40
2019-01-25T16:39:50.866Z,-0.50
2019-01-25T16:42:21.262Z,-0.60
2019-01-25T16:44:51.782Z,-0.70
2019-01-25T16:47:22.194Z,-0.70
2019-01-25T16:49:52.618Z,-0.70
2019-01-25T16:52:23.020Z,-0.90
2019-01-25T16:54:53.429Z,-0.80
2019-01-25T16:57:23.838Z,-0.90
2019-01-25T16:59:54.343Z,-0.90
2019-01-25T17:02:24.818Z,-1.10
2019-01-25T17:04:55.254Z,-1.00
2019-01-25T17:07:25.660Z,-1.10
2019-01-25T17:09:56.096Z,-1.10
2019-01-25T17:12:26.509Z,-1.00
2019-01-25T17:14:56.914Z,-1.00
2019-01-25T17:17:27.418Z,-0.90
2019-01-25T17:19:57.825Z,-0.90
2019-01-25T17:22:28.255Z,-1.00
2019-01-25T17:24:58.746Z,-1.10
2019-01-25T17:27:29.170Z,-1.10
2019-01-25T17:29:59.543Z,-1.10
2019-01-25T17:32:29.997Z,-1.10
2019-01-25T17:35:00.478Z,-1.00
2019-01-25T17:37:30.888Z,-0.90
2019-01-25T17:40:01.302Z,-0.90
2019-01-25T17:42:31.754Z,-0.80
2019-01-25T17:45:03.125Z,-0.90
2019-01-25T17:47:33.526Z,-0.70
2019-01-25T17:50:04.595Z,-0.70
2019-01-25T17:52:34.968Z,-0.80
2019-01-25T17:55:06.884Z,-0.80
2019-01-25T17:57:37.423Z,-0.90
2019-01-25T18:00:14.394Z,-0.90
2019-01-25T18:02:44.794Z,-0.90
2019-01-25T18:05:15.203Z,-0.90
2019-01-25T18:07:45.729Z,-0.90
2019-01-25T18:10:16.879Z,-0.80
2019-01-25T18:12:47.293Z,-0.90
2019-01-25T18:15:17.729Z,-0.90
2019-01-25T18:17:48.469Z,-0.90
2019-01-25T18:20:18.899Z,-0.80
2019-01-25T18:22:52.397Z,-0.90
2019-01-25T18:25:33.348Z,-0.90
2019-01-25T18:28:04.043Z,-0.90
2019-01-25T18:30:50.273Z,-0.90
2019-01-25T18:33:20.653Z,-0.80
2019-01-25T18:35:51.046Z,-0.80
2019-01-25T18:38:21.460Z,-0.90
2019-01-25T18:40:51.850Z,-0.90
2019-01-25T18:43:22.256Z,-0.90
2019-01-25T18:45:52.659Z,-0.90
2019-01-25T18:48:23.141Z,-0.90
2019-01-25T18:50:53.573Z,-0.90
2019-01-25T18:53:24.007Z,-0.90
2019-01-25T18:55:54.464Z,-0.80
2019-01-25T18:58:24.944Z,-0.90
2019-01-25T19:00:55.389Z,-0.90
2019-01-25T19:03:25.789Z,-0.90
2019-01-25T19:05:56.271Z,-0.80
2019-01-25T19:08:26.729Z,-0.90
2019-01-25T19:10:57.133Z,-0.80
2019-01-25T19:13:27.511Z,-0.80
2019-01-25T19:15:57.951Z,-0.80
2019-01-25T19:18:28.392Z,-0.80
2019-01-25T19:20:58.905Z,-0.80
2019-01-25T19:23:30.679Z,-0.90
2019-01-25T19:26:01.076Z,-0.90
2019-01-25T19:28:31.471Z,-0.80
2019-01-25T19:31:01.898Z,-0.90
2019-01-25T19:33:32.287Z,-0.90
2019-01-25T19:36:02.810Z,-1.00
2019-01-25T19:38:33.253Z,-0.90
2019-01-25T19:41:04.901Z,-0.90
2019-01-25T19:43:35.344Z,-0.90
2019-01-25T19:46:06.265Z,-0.90
2019-01-25T19:48:36.719Z,-0.80
2019-01-25T19:51:07.206Z,-0.90
2019-01-25T19:53:37.630Z,-0.90
2019-01-25T19:56:08.118Z,-0.80
2019-01-25T19:58:38.556Z,-0.60
2019-01-25T20:01:09.008Z,-0.70
2019-01-25T20:03:39.422Z,-0.60
2019-01-25T20:06:09.834Z,-0.70
2019-01-25T20:08:40.258Z,-0.70
2019-01-25T20:11:10.687Z,-0.70
2019-01-25T20:13:41.112Z,-0.70
2019-01-25T20:16:11.505Z,-0.70
2019-01-25T20:18:41.967Z,-0.70
2019-01-25T20:21:12.384Z,-0.70
2019-01-25T20:23:42.875Z,-0.70
2019-01-25T20:26:13.338Z,-0.60
2019-01-25T20:28:43.862Z,-0.60
2019-01-25T20:31:14.257Z,-0.60
2019-01-25T20:33:45.828Z,-0.60
2019-01-25T20:36:16.526Z,-0.60
2019-01-25T20:38:46.942Z,-0.60
2019-01-25T20:41:17.338Z,-0.60
2019-01-25T20:43:47.796Z,-0.60
2019-01-25T20:46:18.191Z,-0.80
2019-01-25T20:48:48.582Z,-0.70
2019-01-25T20:51:18.974Z,-0.70
2019-01-25T20:53:49.479Z,-0.70
2019-01-25T20:56:19.922Z,-0.70
2019-01-25T20:58:50.388Z,-0.70
2019-01-25T21:01:20.816Z,-0.70
2019-01-25T21:03:51.385Z,-0.80
2019-01-25T21:06:21.907Z,-0.70
2019-01-25T21:08:52.375Z,-0.70
2019-01-25T21:11:22.793Z,-0.70
2019-01-25T21:13:53.246Z,-0.80
2019-01-25T21:16:23.685Z,-0.80
2019-01-25T21:18:54.117Z,-0.80
2019-01-25T21:21:24.618Z,-0.80
2019-01-25T21:23:55.037Z,-0.80
2019-01-25T21:26:25.511Z,-0.80
2019-01-25T21:28:55.934Z,-0.80
2019-01-25T21:31:26.323Z,-0.80
2019-01-25T21:33:56.735Z,-0.80
2019-01-25T21:36:27.205Z,-0.70
2019-01-25T21:38:57.666Z,-0.70
2019-01-25T21:41:28.109Z,-0.60
2019-01-25T21:43:58.590Z,-0.50
2019-01-25T21:46:29.082Z,-0.60
2019-01-25T21:48:59.507Z,-0.70
2019-01-25T21:51:29.933Z,-0.70
2019-01-25T21:54:00.447Z,-0.60
2019-01-25T21:56:30.924Z,-0.60
2019-01-25T21:59:01.439Z,-0.70
2019-01-25T22:01:31.863Z,-0.70
2019-01-25T22:04:02.352Z,-0.60
2019-01-25T22:06:32.749Z,-0.70
2019-01-25T22:09:04.506Z,-0.70
2019-01-25T22:11:35.790Z,-0.70
2019-01-25T22:14:06.347Z,-0.60
2019-01-25T22:16:36.822Z,-0.60
2019-01-25T22:19:07.274Z,-0.60
2019-01-25T22:21:37.631Z,-0.60
2019-01-25T22:24:08.034Z,-0.60
2019-01-25T22:26:38.426Z,-0.60
2019-01-25T22:29:08.842Z,-0.60
2019-01-25T22:31:39.228Z,-0.70
2019-01-25T22:34:09.639Z,-0.60
2019-01-25T22:36:40.043Z,-0.60
2019-01-25T22:39:10.546Z,-0.50
2019-01-25T22:41:40.971Z,-0.50
2019-01-25T22:44:11.353Z,-0.40
2019-01-25T22:46:41.739Z,-0.50
2019-01-25T22:49:12.130Z,-0.50
2019-01-25T22:51:42.557Z,-0.60
2019-01-25T22:54:12.998Z,-0.60
2019-01-25T22:56:43.417Z,-0.60
2019-01-25T22:59:13.807Z,-0.70
2019-01-25T23:01:44.405Z,-0.70
2019-01-25T23:04:58.012Z,-0.70
2019-01-25T23:07:30.469Z,-0.70
2019-01-25T23:10:16.008Z,-0.70
2019-01-25T23:12:46.400Z,-0.80
2019-01-25T23:15:18.234Z,-0.90
2019-01-25T23:17:48.644Z,-1.00
2019-01-25T23:20:30.972Z,-1.10
2019-01-25T23:23:01.430Z,-1.10
2019-01-25T23:25:31.822Z,-1.10
2019-01-25T23:28:02.255Z,-1.00
2019-01-25T23:30:32.691Z,-1.10
2019-01-25T23:33:03.106Z,-1.00
2019-01-25T23:35:33.474Z,-1.00
2019-01-25T23:38:03.970Z,-0.90
2019-01-25T23:40:34.395Z,-0.90
2019-01-25T23:43:04.836Z,-0.90
2019-01-25T23:45:35.250Z,-1.00
2019-01-25T23:48:05.647Z,-0.90
2019-01-25T23:50:36.081Z,-0.90
2019-01-25T23:53:06.507Z,-0.90
2019-01-25T23:55:36.933Z,-0.80
2019-01-25T23:58:07.377Z,-0.80
